Time;durP1;ratioP1;P1;durP2;ratioP2;P2;SDS_P1;SDS_P2;PMS_P1;PMS_P2;Temp;Humidity;BMP_temperature;BMP_pressure;BME280_temperature;BME280_humidity;BME280_pressure;Samples;Min_cycle;Max_cycle;Signal;HPM_P1;HPM_P2
2024/01/07 00:00:47;;;;;;;17.98;16.35;;;13.20;99.90;;;;;;5007892;29;20454;-79
2024/01/07 00:03:18;;;;;;;17.98;15.85;;;13.50;99.90;;;;;;5009034;29;20803;-78
2024/01/07 00:05:49;;;;;;;17.75;15.57;;;13.30;99.90;;;;;;5010353;29;20034;-78
2024/01/07 00:08:21;;;;;;;13.75;12.27;;;13.40;99.90;;;;;;5011451;29;20040;-79
2024/01/07 00:10:51;;;;;;;18.45;13.90;;;13.20;99.90;;;;;;5012795;29;20471;-78
2024/01/07 00:13:22;;;;;;;18.35;14.07;;;13.10;99.90;;;;;;5011180;29;20063;-78
2024/01/07 00:15:56;;;;;;;17.67;15.25;;;13.10;99.90;;;;;;5012367;29;20030;-78
2024/01/07 00:18:27;;;;;;;17.55;12.85;;;13.10;99.90;;;;;;5026680;29;20042;-78
2024/01/07 00:20:58;;;;;;;14.05;10.60;;;12.80;99.90;;;;;;5012489;29;20042;-79
2024/01/07 00:23:29;;;;;;;14.90;11.75;;;11.90;99.90;;;;;;5011349;29;20082;-79
2024/01/07 00:26:00;;;;;;;12.38;9.70;;;11.50;99.90;;;;;;5012425;29;20657;-79
2024/01/07 00:28:31;;;;;;;11.35;9.25;;;11.60;99.90;;;;;;5026604;29;20033;-79
2024/01/07 00:31:02;;;;;;;17.65;13.57;;;11.10;99.90;;;;;;5012477;29;20526;-78
2024/01/07 00:33:34;;;;;;;14.32;10.90;;;10.90;99.90;;;;;;5012034;29;20037;-78
2024/01/07 00:36:05;;;;;;;15.15;11.43;;;10.70;99.90;;;;;;5012646;29;20049;-78
2024/01/07 00:38:36;;;;;;;14.35;12.85;;;10.70;99.90;;;;;;5011120;29;20038;-79
2024/01/07 00:41:07;;;;;;;17.33;9.93;;;10.80;99.90;;;;;;5011793;29;20068;-78
2024/01/07 00:43:37;;;;;;;15.02;9.40;;;11.00;99.90;;;;;;5010904;29;20037;-78
2024/01/07 00:46:08;;;;;;;15.30;9.82;;;10.80;99.90;;;;;;5012122;29;20026;-79
2024/01/07 00:48:39;;;;;;;14.55;8.85;;;10.70;99.90;;;;;;5010757;29;20081;-79
2024/01/07 00:51:10;;;;;;;14.05;7.80;;;10.40;99.90;;;;;;5010802;29;20483;-79
2024/01/07 00:53:41;;;;;;;15.07;8.93;;;10.00;99.90;;;;;;5012032;29;20034;-79
2024/01/07 00:56:12;;;;;;;13.00;8.88;;;10.40;99.90;;;;;;5010725;29;20090;-79
2024/01/07 00:58:43;;;;;;;15.85;9.70;;;10.10;99.90;;;;;;5010649;29;20034;-79
2024/01/07 01:01:13;;;;;;;12.25;8.85;;;10.50;99.90;;;;;;5010343;29;20124;-79
2024/01/07 01:03:44;;;;;;;14.68;9.30;;;10.40;99.90;;;;;;5011706;29;20030;-79
2024/01/07 01:06:15;;;;;;;13.00;9.23;;;11.90;99.90;;;;;;5011466;29;20052;-79
2024/01/07 01:08:46;;;;;;;15.05;9.65;;;13.00;99.90;;;;;;5010621;29;20032;-78
2024/01/07 01:11:17;;;;;;;12.23;10.55;;;13.10;99.90;;;;;;5011645;29;20022;-78
2024/01/07 01:13:48;;;;;;;16.85;15.32;;;13.40;99.90;;;;;;5025802;29;20101;-79
2024/01/07 01:16:19;;;;;;;17.55;15.77;;;13.50;99.90;;;;;;5011366;29;20030;-78
2024/01/07 01:18:50;;;;;;;25.05;16.77;;;13.60;99.90;;;;;;5009730;29;20030;-78
2024/01/07 01:21:21;;;;;;;19.38;17.88;;;13.20;99.90;;;;;;5025473;29;20049;-79
2024/01/07 01:23:52;;;;;;;19.25;17.10;;;13.80;99.90;;;;;;5011462;29;20394;-78
2024/01/07 01:26:23;;;;;;;16.35;14.95;;;14.00;99.90;;;;;;5011361;29;20030;-79
2024/01/07 01:28:54;;;;;;;15.13;13.57;;;13.70;99.90;;;;;;5011426;29;20424;-78
2024/01/07 01:31:25;;;;;;;13.15;11.32;;;14.00;99.90;;;;;;5011332;29;20045;-78
2024/01/07 01:33:55;;;;;;;13.35;10.50;;;13.80;99.90;;;;;;5009821;29;20088;-80
2024/01/07 01:36:26;;;;;;;13.45;11.02;;;13.80;99.90;;;;;;5011249;29;20147;-78
2024/01/07 01:38:57;;;;;;;12.68;9.85;;;13.70;99.90;;;;;;5009735;29;20030;-79
2024/01/07 01:41:28;;;;;;;11.10;9.93;;;13.90;99.90;;;;;;5009623;29;20041;-78
2024/01/07 01:44:00;;;;;;;12.60;10.10;;;14.00;99.90;;;;;;5009933;29;20030;-79
2024/01/07 01:46:32;;;;;;;10.77;9.50;;;14.10;99.90;;;;;;5011021;29;20065;-78
2024/01/07 01:49:03;;;;;;;11.75;9.55;;;14.10;99.90;;;;;;5009688;29;20053;-79
2024/01/07 01:51:35;;;;;;;11.70;10.48;;;14.00;99.90;;;;;;5010884;29;20034;-79
2024/01/07 01:54:07;;;;;;;12.52;9.57;;;13.90;99.90;;;;;;5010929;29;20022;-79
2024/01/07 01:56:38;;;;;;;11.15;10.02;;;13.80;99.90;;;;;;5025029;29;20034;-78
2024/01/07 01:59:09;;;;;;;12.77;10.18;;;13.60;99.90;;;;;;5010864;29;20026;-79
2024/01/07 02:01:40;;;;;;;10.77;9.63;;;13.70;99.90;;;;;;5010341;29;20859;-78
2024/01/07 02:04:11;;;;;;;14.65;9.88;;;13.80;99.90;;;;;;5476630;23;20076;-79
2024/01/07 02:06:45;;;;;;;11.43;10.23;;;13.70;99.90;;;;;;5047658;29;20510;-78
2024/01/07 02:09:16;;;;;;;14.50;10.93;;;13.60;99.90;;;;;;5047711;29;20123;-78
2024/01/07 02:12:06;;;;;;;13.57;11.32;;;13.40;99.90;;;;;;5049023;29;20546;-79
2024/01/07 02:14:37;;;;;;;15.63;14.30;;;13.10;99.90;;;;;;5047675;29;20033;-78
2024/01/07 02:17:08;;;;;;;18.23;16.63;;;13.10;99.90;;;;;;5047459;29;20033;-79
2024/01/07 02:19:39;;;;;;;23.02;21.02;;;12.70;99.90;;;;;;5047357;29;20537;-79
2024/01/07 02:22:10;;;;;;;22.70;20.90;;;12.50;99.90;;;;;;5048519;29;20032;-79
2024/01/07 02:24:41;;;;;;;21.15;18.98;;;12.50;99.90;;;;;;5048323;29;20037;-79
2024/01/07 02:27:12;;;;;;;16.38;14.82;;;12.20;99.90;;;;;;5047313;29;20043;-78
2024/01/07 02:29:42;;;;;;;14.00;12.60;;;12.40;99.90;;;;;;5047687;29;20033;-79
2024/01/07 02:32:13;;;;;;;14.07;11.30;;;12.00;99.90;;;;;;5048272;29;20029;-79
2024/01/07 02:34:44;;;;;;;13.43;10.80;;;11.80;99.90;;;;;;5048060;29;20044;-79
2024/01/07 02:37:15;;;;;;;16.08;11.00;;;12.20;99.90;;;;;;5048393;29;20084;-79
2024/01/07 02:39:46;;;;;;;11.98;10.82;;;12.50;99.90;;;;;;5047053;29;20478;-79
2024/01/07 02:42:17;;;;;;;15.13;9.45;;;12.30;99.90;;;;;;5047124;29;20403;-79
2024/01/07 02:44:48;;;;;;;10.23;8.25;;;11.30;99.90;;;;;;5047090;29;20040;-78
2024/01/07 02:47:19;;;;;;;12.90;8.75;;;11.40;99.90;;;;;;5048370;29;20017;-78
2024/01/07 02:49:50;;;;;;;15.27;10.00;;;11.20;99.90;;;;;;5047072;29;20040;-79
2024/01/07 02:52:21;;;;;;;12.45;9.48;;;11.40;99.90;;;;;;5048368;29;20474;-79
2024/01/07 02:54:52;;;;;;;12.68;9.70;;;11.20;99.90;;;;;;5048351;29;20028;-79
2024/01/07 02:57:23;;;;;;;10.95;8.35;;;11.00;99.90;;;;;;5047795;29;20512;-78
2024/01/07 02:59:53;;;;;;;10.52;8.40;;;10.70;99.90;;;;;;5046810;29;20127;-79
2024/01/07 03:02:24;;;;;;;13.75;10.60;;;10.80;99.90;;;;;;5048155;29;20033;-79
2024/01/07 03:04:55;;;;;;;12.48;10.65;;;10.70;99.90;;;;;;5046404;29;20057;-78
2024/01/07 03:07:26;;;;;;;15.32;11.60;;;11.20;99.90;;;;;;5048088;29;20040;-78
2024/01/07 03:09:57;;;;;;;12.95;10.93;;;10.70;99.90;;;;;;5046792;29;20092;-80
2024/01/07 03:12:28;;;;;;;12.73;10.68;;;10.80;99.90;;;;;;5046838;29;20037;-79
2024/01/07 03:14:59;;;;;;;18.92;13.57;;;10.40;99.90;;;;;;5047911;29;20066;-79
2024/01/07 03:17:30;;;;;;;14.82;13.02;;;10.60;99.90;;;;;;5048020;29;20044;-79
2024/01/07 03:20:01;;;;;;;18.65;14.80;;;10.20;99.90;;;;;;5046570;29;20398;-79
2024/01/07 03:22:32;;;;;;;15.30;11.75;;;10.00;99.90;;;;;;5047867;29;20033;-79
2024/01/07 03:25:03;;;;;;;14.18;12.20;;;10.10;99.90;;;;;;5047903;29;20029;-79
2024/01/07 03:27:34;;;;;;;18.65;15.48;;;9.90;99.90;;;;;;5046486;29;20085;-79
2024/01/07 03:30:06;;;;;;;18.02;15.32;;;9.80;99.90;;;;;;5047761;29;20029;-79
2024/01/07 03:32:37;;;;;;;16.60;14.75;;;9.60;99.90;;;;;;5047888;29;20476;-78
2024/01/07 03:35:10;;;;;;;15.98;13.23;;;9.70;99.90;;;;;;5046414;29;20057;-78
2024/01/07 03:37:41;;;;;;;18.55;13.65;;;9.30;99.90;;;;;;5047822;29;20033;-78
2024/01/07 03:40:12;;;;;;;18.90;15.25;;;9.70;99.90;;;;;;5046642;29;20379;-78
2024/01/07 03:42:43;;;;;;;18.55;14.45;;;9.40;99.90;;;;;;5051602;29;20081;-78
2024/01/07 03:45:14;;;;;;;16.20;12.30;;;9.20;99.90;;;;;;5050547;29;20025;-78
2024/01/07 03:47:45;;;;;;;11.85;10.65;;;9.20;99.90;;;;;;5051521;29;20081;-78
2024/01/07 03:50:16;;;;;;;10.07;8.90;;;9.50;99.90;;;;;;5049903;29;20032;-79
2024/01/07 03:52:47;;;;;;;12.90;6.97;;;9.90;99.90;;;;;;5049823;29;20553;-79
2024/01/07 03:55:17;;;;;;;9.10;6.97;;;11.50;99.90;;;;;;5051363;29;20025;-78
2024/01/07 03:57:48;;;;;;;9.52;8.52;;;11.60;99.90;;;;;;5051291;29;20029;-78
2024/01/07 04:00:20;;;;;;;12.45;9.80;;;13.60;99.90;;;;;;5051142;29;20061;-78
2024/01/07 04:02:51;;;;;;;12.80;11.77;;;14.00;99.90;;;;;;5049963;29;20029;-78
2024/01/07 04:05:21;;;;;;;13.50;12.10;;;14.30;99.90;;;;;;5049294;29;20086;-78
2024/01/07 04:07:52;;;;;;;12.68;11.48;;;14.60;99.90;;;;;;5051136;29;20035;-79
2024/01/07 04:10:23;;;;;;;15.38;13.95;;;14.50;99.90;;;;;;5051123;29;20032;-78
2024/01/07 04:12:54;;;;;;;16.10;14.77;;;14.60;99.90;;;;;;5051033;29;20032;-79
2024/01/07 04:15:25;;;;;;;15.20;13.88;;;14.90;99.90;;;;;;5049822;29;20041;-79
2024/01/07 04:17:56;;;;;;;15.25;13.80;;;14.80;99.90;;;;;;5049717;29;20024;-78
2024/01/07 04:20:27;;;;;;;17.30;15.80;;;14.90;99.90;;;;;;5049493;29;20071;-79
2024/01/07 04:22:58;;;;;;;14.98;13.82;;;14.70;99.90;;;;;;5050830;29;20036;-78
2024/01/07 04:25:29;;;;;;;15.00;13.75;;;14.90;99.90;;;;;;5049425;29;20478;-78
2024/01/07 04:28:00;;;;;;;13.68;12.48;;;14.80;99.90;;;;;;5050798;29;20033;-79
2024/01/07 04:30:31;;;;;;;16.42;15.02;;;15.20;99.90;;;;;;5049447;29;20582;-79
2024/01/07 04:33:02;;;;;;;13.40;12.18;;;15.20;99.90;;;;;;5049466;29;20124;-78
2024/01/07 04:35:34;;;;;;;14.80;13.40;;;14.90;99.90;;;;;;5049198;29;20630;-78
2024/01/07 04:38:04;;;;;;;14.45;13.15;;;14.90;99.90;;;;;;5049265;29;20033;-79
2024/01/07 04:40:35;;;;;;;13.02;11.98;;;15.10;99.90;;;;;;5050201;29;20063;-79
2024/01/07 04:43:06;;;;;;;11.98;10.85;;;15.00;99.90;;;;;;5049287;29;20040;-78
2024/01/07 04:45:37;;;;;;;11.63;10.63;;;15.00;99.90;;;;;;5050466;29;20044;-79
2024/01/07 04:48:08;;;;;;;11.70;10.55;;;14.30;99.90;;;;;;5050206;29;20033;-78
2024/01/07 04:50:42;;;;;;;12.48;11.30;;;14.90;99.90;;;;;;5050359;29;20025;-79
2024/01/07 04:53:13;;;;;;;13.00;11.90;;;14.90;99.90;;;;;;5049450;29;20033;-79
2024/01/07 04:55:44;;;;;;;13.38;12.00;;;14.10;99.90;;;;;;5050061;29;20846;-78
2024/01/07 04:58:14;;;;;;;13.13;11.88;;;14.40;99.90;;;;;;5048834;29;20033;-79
2024/01/07 05:00:45;;;;;;;12.13;11.02;;;14.70;99.90;;;;;;5041946;29;20117;-80
2024/01/07 05:03:16;;;;;;;11.43;10.32;;;14.90;99.90;;;;;;5030731;29;20428;-80
2024/01/07 05:05:47;;;;;;;12.90;11.60;;;14.50;99.90;;;;;;5029536;29;20052;-78
2024/01/07 05:08:18;;;;;;;10.90;9.95;;;15.30;99.90;;;;;;5030702;29;20025;-78
2024/01/07 05:10:49;;;;;;;10.63;9.57;;;15.20;99.90;;;;;;5029516;29;20033;-79
2024/01/07 05:13:20;;;;;;;8.88;8.13;;;15.60;99.90;;;;;;5030781;29;20057;-78
2024/01/07 05:15:53;;;;;;;8.80;8.00;;;15.60;99.90;;;;;;5029258;29;20390;-79
2024/01/07 05:18:24;;;;;;;12.15;9.77;;;15.60;99.90;;;;;;5030568;29;20033;-79
2024/01/07 05:34:59;;;;;;;29.13;10.98;;;13.70;99.90;;;;;;5329527;27;20396;-79
2024/01/07 05:37:30;;;;;;;23.98;10.63;;;11.60;99.90;;;;;;5329366;27;20377;-77
2024/01/07 05:40:01;;;;;;;25.45;8.63;;;11.40;99.90;;;;;;5329333;27;20094;-79
2024/01/07 05:42:31;;;;;;;22.88;7.38;;;11.60;99.90;;;;;;5327872;27;20023;-78
2024/01/07 05:45:03;;;;;;;18.95;7.20;;;11.40;99.90;;;;;;5327943;27;20031;-79
2024/01/07 05:47:34;;;;;;;25.83;7.32;;;11.40;99.90;;;;;;5329227;27;20118;-77
2024/01/07 05:50:05;;;;;;;24.48;7.38;;;11.30;99.90;;;;;;5327838;27;20035;-78
2024/01/07 05:52:36;;;;;;;23.40;6.68;;;11.20;99.90;;;;;;5329010;27;20054;-80
2024/01/07 05:55:07;;;;;;;21.63;7.45;;;11.40;99.90;;;;;;5310861;27;20081;-79
2024/01/07 05:57:38;;;;;;;40.33;25.08;;;11.30;99.90;;;;;;5307629;27;20051;-79
2024/01/07 06:00:10;;;;;;;24.45;8.93;;;11.30;99.90;;;;;;5307515;28;20062;-78
2024/01/07 06:02:41;;;;;;;35.35;18.85;;;11.20;99.90;;;;;;5307403;27;20028;-78
2024/01/07 06:05:12;;;;;;;43.55;19.58;;;11.00;99.90;;;;;;5307221;28;20047;-79
2024/01/07 06:07:43;;;;;;;20.67;7.40;;;11.20;99.90;;;;;;5306970;27;20085;-78
2024/01/07 06:10:14;;;;;;;28.60;7.10;;;10.80;99.90;;;;;;5307113;27;20027;-78
2024/01/07 06:12:45;;;;;;;25.92;7.47;;;11.20;99.90;;;;;;5305847;28;20042;-78
2024/01/07 06:15:17;;;;;;;25.85;8.50;;;11.20;99.90;;;;;;5307143;28;20028;-77
2024/01/07 06:17:48;;;;;;;30.15;8.88;;;11.20;99.90;;;;;;5307025;27;20469;-78
2024/01/07 06:20:19;;;;;;;26.80;8.13;;;11.10;99.90;;;;;;5307016;28;20023;-79
2024/01/07 06:22:50;;;;;;;31.20;8.13;;;11.40;99.90;;;;;;5306885;27;20039;-78
2024/01/07 06:25:22;;;;;;;27.58;8.30;;;11.10;99.90;;;;;;5299295;28;20479;-78
2024/01/07 06:27:53;;;;;;;30.15;9.32;;;11.20;99.90;;;;;;5291411;28;20462;-78
2024/01/07 06:30:24;;;;;;;27.55;9.25;;;11.30;99.90;;;;;;5306795;27;20110;-78
2024/01/07 06:32:55;;;;;;;24.70;7.30;;;11.00;99.90;;;;;;5306486;27;20482;-78
2024/01/07 06:35:26;;;;;;;25.15;7.85;;;11.10;99.90;;;;;;5295298;27;20617;-79
2024/01/07 06:37:57;;;;;;;23.20;7.60;;;11.20;99.90;;;;;;5292471;28;20122;-78
2024/01/07 06:40:28;;;;;;;25.70;8.05;;;11.20;99.90;;;;;;5292524;28;20509;-79
2024/01/07 06:42:59;;;;;;;18.80;7.50;;;11.30;99.90;;;;;;5292165;28;20395;-78
2024/01/07 06:45:31;;;;;;;27.17;8.75;;;11.00;99.90;;;;;;5292287;28;20027;-78
2024/01/07 06:48:02;;;;;;;32.05;9.43;;;11.00;99.90;;;;;;5292259;28;20034;-78
2024/01/07 06:50:33;;;;;;;37.85;9.50;;;11.00;99.90;;;;;;5292394;28;20019;-77
2024/01/07 06:53:04;;;;;;;28.85;9.73;;;11.20;99.90;;;;;;5292260;28;20108;-77
2024/01/07 06:55:35;;;;;;;34.03;8.90;;;11.10;99.90;;;;;;5290948;28;20051;-78
2024/01/07 06:58:06;;;;;;;32.08;9.77;;;11.20;99.90;;;;;;5292130;28;20028;-77
2024/01/07 07:00:38;;;;;;;36.90;10.18;;;10.90;99.90;;;;;;5292050;28;20113;-77
2024/01/07 07:03:09;;;;;;;32.97;8.88;;;11.10;99.90;;;;;;5291861;28;20104;-78
2024/01/07 07:05:39;;;;;;;36.70;10.43;;;11.20;99.90;;;;;;5292044;28;20036;-76
2024/01/07 07:08:10;;;;;;;29.95;10.63;;;11.10;99.90;;;;;;5292139;28;20068;-81
2024/01/07 07:10:41;;;;;;;29.98;10.00;;;11.20;99.90;;;;;;5290842;28;20020;-83
2024/01/07 07:13:12;;;;;;;42.63;13.77;;;10.90;99.90;;;;;;5292098;28;20039;-77
2024/01/07 07:15:43;;;;;;;34.63;14.30;;;11.00;99.90;;;;;;5290636;28;20114;-82
2024/01/07 07:18:14;;;;;;;40.03;14.55;;;11.20;99.90;;;;;;5292053;28;20027;-79
2024/01/07 07:20:45;;;;;;;42.45;15.75;;;11.00;99.90;;;;;;5290347;28;20482;-79
2024/01/07 07:23:16;;;;;;;42.72;14.68;;;10.90;99.90;;;;;;5291513;28;20060;-79
2024/01/07 07:25:46;;;;;;;50.28;16.58;;;10.80;99.90;;;;;;5290349;28;20024;-79
2024/01/07 07:28:17;;;;;;;40.95;12.77;;;10.90;99.90;;;;;;5290464;28;20032;-80
2024/01/07 07:30:48;;;;;;;34.10;12.10;;;11.00;99.90;;;;;;5290243;28;20024;-81
2024/01/07 07:33:19;;;;;;;35.40;10.35;;;10.80;99.90;;;;;;5291456;28;20043;-80
2024/01/07 07:35:50;;;;;;;33.80;8.13;;;10.90;99.90;;;;;;5291654;28;20050;-78
2024/01/07 07:38:21;;;;;;;31.08;8.13;;;10.90;99.90;;;;;;5291605;28;20032;-77
2024/01/07 07:40:52;;;;;;;34.65;10.98;;;11.20;99.90;;;;;;5291258;28;20423;-77
2024/01/07 07:43:24;;;;;;;44.50;10.85;;;11.20;99.90;;;;;;5290973;28;20084;-78
2024/01/07 07:45:55;;;;;;;38.65;15.90;;;11.00;99.90;;;;;;5289394;28;20050;-78
2024/01/07 07:48:27;;;;;;;59.70;26.58;;;11.20;99.90;;;;;;5289851;28;20032;-80
2024/01/07 07:50:58;;;;;;;36.88;15.48;;;11.30;99.90;;;;;;5291108;28;20016;-79
2024/01/07 07:53:29;;;;;;;41.42;17.65;;;11.40;99.90;;;;;;5291086;27;20106;-79
2024/01/07 07:56:01;;;;;;;41.75;16.27;;;11.50;99.90;;;;;;5290347;28;20020;-77
2024/01/07 07:58:32;;;;;;;39.05;18.40;;;11.40;99.90;;;;;;5290882;28;20035;-79
2024/01/07 08:01:04;;;;;;;50.58;19.23;;;11.30;99.90;;;;;;5290221;28;20016;-78
2024/01/07 08:03:39;;;;;;;33.92;17.70;;;11.40;99.90;;;;;;5290445;28;20180;-79
2024/01/07 08:06:10;;;;;;;39.92;17.75;;;11.30;99.90;;;;;;5290567;28;20020;-80
2024/01/07 08:08:41;;;;;;;34.30;18.00;;;11.50;99.90;;;;;;5290705;28;20494;-79
2024/01/07 08:11:12;;;;;;;30.60;16.27;;;11.50;99.90;;;;;;5290664;28;20028;-79
2024/01/07 08:13:43;;;;;;;38.67;14.88;;;11.60;99.90;;;;;;5290497;28;20031;-79
2024/01/07 08:16:14;;;;;;;37.55;11.68;;;11.80;99.90;;;;;;5290353;28;20023;-80
2024/01/07 08:18:45;;;;;;;32.38;12.05;;;11.70;99.90;;;;;;5288404;28;20470;-79
2024/01/07 08:21:16;;;;;;;33.45;10.77;;;11.80;99.90;;;;;;5289781;28;20046;-80
2024/01/07 08:23:46;;;;;;;31.30;12.68;;;11.50;99.90;;;;;;5720693;22;20028;-79
2024/01/07 08:26:21;;;;;;;45.05;13.05;;;11.60;99.90;;;;;;5288554;28;20550;-79
2024/01/07 08:28:52;;;;;;;29.95;11.88;;;11.60;99.90;;;;;;5289673;28;20016;-79
2024/01/07 08:31:23;;;;;;;41.63;12.73;;;11.70;99.90;;;;;;5290072;28;20016;-78
2024/01/07 08:33:54;;;;;;;32.65;10.57;;;11.80;99.90;;;;;;5288637;28;20023;-78
2024/01/07 08:36:25;;;;;;;32.22;10.25;;;11.80;99.90;;;;;;5289987;28;20047;-77
2024/01/07 08:38:56;;;;;;;34.60;9.52;;;11.70;99.90;;;;;;5289900;28;20019;-77
2024/01/07 08:41:27;;;;;;;31.08;9.60;;;11.90;99.90;;;;;;5289989;28;20520;-78
2024/01/07 08:43:58;;;;;;;33.63;9.00;;;12.00;99.90;;;;;;5288380;28;20077;-78
2024/01/07 08:46:30;;;;;;;31.58;9.48;;;11.90;99.90;;;;;;5288584;28;20382;-78
2024/01/07 08:49:02;;;;;;;42.25;9.20;;;12.00;99.90;;;;;;5287967;28;20063;-78
2024/01/07 08:51:33;;;;;;;27.75;8.65;;;12.20;99.90;;;;;;5283908;28;20015;-77
2024/01/07 08:54:04;;;;;;;39.78;10.25;;;12.30;99.90;;;;;;5281652;28;20464;-78
2024/01/07 08:56:35;;;;;;;58.28;13.15;;;12.30;99.90;;;;;;5268327;28;20030;-78
2024/01/07 08:59:06;;;;;;;42.50;10.82;;;12.40;99.90;;;;;;5268383;28;20066;-77
2024/01/07 09:01:37;;;;;;;33.83;11.30;;;12.40;99.90;;;;;;5267242;28;20031;-78
2024/01/07 09:04:08;;;;;;;42.42;17.10;;;12.40;99.90;;;;;;5268765;28;20114;-78
2024/01/07 09:06:39;;;;;;;33.78;16.95;;;12.50;99.90;;;;;;5268777;28;20368;-78
2024/01/07 09:09:10;;;;;;;37.60;17.25;;;12.40;99.90;;;;;;5268899;28;20020;-76
2024/01/07 09:11:41;;;;;;;37.22;17.23;;;12.40;99.90;;;;;;5268914;28;20026;-77
2024/01/07 09:14:16;;;;;;;37.20;19.05;;;12.50;99.90;;;;;;5263705;28;20020;-76
2024/01/07 09:16:47;;;;;;;68.22;24.33;;;12.60;99.90;;;;;;5268037;28;20752;-79
2024/01/07 09:19:18;;;;;;;42.45;21.27;;;12.60;99.90;;;;;;5251261;28;20025;-78
2024/01/07 09:21:49;;;;;;;44.50;23.95;;;12.50;99.90;;;;;;5247446;28;20539;-79
2024/01/07 09:24:20;;;;;;;42.92;21.98;;;12.60;99.90;;;;;;5746940;22;20840;-79
2024/01/07 09:26:51;;;;;;;42.67;20.67;;;12.60;99.90;;;;;;5266242;28;20032;-77
2024/01/07 09:29:22;;;;;;;35.55;26.25;;;12.80;99.90;;;;;;5268553;28;20024;-80
2024/01/07 09:31:53;;;;;;;30.95;19.50;;;12.70;99.90;;;;;;5268581;28;20425;-79
2024/01/07 09:34:24;;;;;;;32.47;19.95;;;12.70;99.90;;;;;;5268614;28;20052;-79
2024/01/07 09:36:55;;;;;;;32.33;20.13;;;12.90;99.90;;;;;;5268658;28;20024;-76
2024/01/07 09:39:28;;;;;;;32.92;22.55;;;12.90;99.90;;;;;;5268568;28;20077;-79
2024/01/07 09:42:00;;;;;;;28.05;21.55;;;13.00;99.90;;;;;;5268456;28;20528;-80
2024/01/07 09:44:31;;;;;;;29.88;22.80;;;13.10;99.90;;;;;;5267071;28;20043;-80
2024/01/07 09:47:04;;;;;;;27.83;23.13;;;13.20;99.90;;;;;;5268516;28;20024;-78
2024/01/07 09:49:34;;;;;;;27.92;24.95;;;13.10;99.90;;;;;;5268627;28;20084;-75
2024/01/07 09:52:07;;;;;;;31.60;27.80;;;13.30;99.90;;;;;;5267043;28;20543;-76
2024/01/07 09:54:39;;;;;;;28.00;24.60;;;13.30;99.90;;;;;;5264433;28;20035;-79
2024/01/07 09:57:10;;;;;;;27.17;24.35;;;13.40;99.90;;;;;;5246144;28;20028;-80
2024/01/07 09:59:41;;;;;;;28.48;25.00;;;13.40;99.90;;;;;;5247125;28;20024;-80
2024/01/07 10:02:13;;;;;;;29.55;25.67;;;13.50;99.90;;;;;;5246606;28;20040;-79
2024/01/07 10:04:48;;;;;;;29.33;26.38;;;13.60;99.90;;;;;;5246991;28;20500;-79
2024/01/07 10:07:21;;;;;;;26.40;21.13;;;13.70;99.90;;;;;;5246681;28;20017;-80
2024/01/07 10:09:53;;;;;;;31.27;28.02;;;13.70;99.90;;;;;;5236923;28;20037;-78
2024/01/07 10:12:25;;;;;;;30.52;27.27;;;13.80;99.90;;;;;;5236341;28;20029;-80
2024/01/07 10:14:56;;;;;;;27.35;23.40;;;13.80;99.90;;;;;;5252855;28;20032;-81
2024/01/07 10:17:27;;;;;;;27.60;24.27;;;13.90;99.90;;;;;;5251197;28;20020;-78
2024/01/07 10:19:58;;;;;;;24.00;22.00;;;13.80;99.90;;;;;;5250986;28;20535;-78
2024/01/07 10:22:30;;;;;;;23.70;21.15;;;13.90;99.90;;;;;;5251163;28;20150;-78
2024/01/07 10:25:00;;;;;;;24.55;22.17;;;13.80;99.90;;;;;;5256201;28;20059;-76
2024/01/07 10:27:35;;;;;;;23.02;20.67;;;13.90;99.90;;;;;;5270987;28;20032;-76
2024/01/07 10:30:06;;;;;;;25.95;23.55;;;14.00;99.90;;;;;;5271973;28;20467;-78
2024/01/07 10:32:37;;;;;;;24.63;22.42;;;13.90;99.90;;;;;;5271810;28;20464;-78
2024/01/07 10:35:14;;;;;;;25.98;23.08;;;13.90;99.90;;;;;;5271813;28;20024;-77
2024/01/07 10:37:45;;;;;;;28.27;25.35;;;13.80;99.90;;;;;;5270452;28;20027;-79
2024/01/07 10:40:16;;;;;;;34.22;31.02;;;14.00;99.90;;;;;;5271544;28;20468;-79
2024/01/07 10:42:48;;;;;;;38.38;34.92;;;13.80;99.90;;;;;;5263915;28;20492;-76
